Terminal Aerodrome Forecast
Issued by NWS Cleveland, OH

Home | Current Version | Previous Version | Graphics & Text | Print | Product List | Glossary On
Versions: 1 2 3 4 5 6 7 8 9 10 11 12 13 14 15 16 17 18 19 20 21 22
858
FTUS41 KCLE 250531
TAFCAK
TAF
KCAK 250531Z 2506/2606 14012KT P6SM -SHRA BKN019 OVC025
     FM251700 18008KT P6SM VCSH SCT019 OVC030
     FM260000 28008KT P6SM OVC007=

USA.gov is the U.S. government's official web portal to all federal, state and local government web resources and services.